Terminal Aerodrome Forecast
Issued by NWS

Current Version | Previous Version | Text Only | Print | Product List | Glossary On
Versions: 1 2 3 4 5 6 7 8 9 10 11 12 13 14 15 16 17 18 19
000
FTUS45 KSLC 240543
TAFOGD
TAF
KOGD 240543Z 2406/2506 17007KT P6SM SCT070 SCT200
     FM241900 27007KT P6SM SCT070 BKN120
     FM250200 16006KT P6SM BKN120=

USA.gov is the U.S. government's official web portal to all federal, state and local government web resources and services.